createdAt,value
2022-07-27T00:02:13.361Z,18.58
2022-07-27T00:06:15.073Z,18.58
2022-07-27T00:10:17.148Z,18.55
2022-07-27T00:14:19.124Z,18.53
2022-07-27T00:18:20.754Z,18.56
2022-07-27T00:22:23.544Z,18.41
2022-07-27T00:26:24.978Z,18.37
2022-07-27T00:30:26.516Z,18.27
2022-07-27T00:34:28.558Z,18.27
2022-07-27T00:38:30.482Z,18.28
2022-07-27T00:42:32.486Z,18.28
2022-07-27T00:46:34.206Z,18.32
2022-07-27T00:50:36.578Z,18.37
2022-07-27T00:54:38.396Z,18.27
2022-07-27T00:58:40.507Z,18.31
2022-07-27T01:02:45.704Z,18.37
2022-07-27T01:06:49.382Z,18.41
2022-07-27T01:10:54.995Z,18.45
2022-07-27T01:14:58.163Z,18.47
2022-07-27T01:19:00.794Z,18.49
2022-07-27T01:23:02.398Z,18.52
2022-07-27T01:27:05.969Z,18.50
2022-07-27T01:31:07.784Z,18.50
2022-07-27T01:35:09.895Z,18.52
2022-07-27T01:39:13.139Z,18.53
2022-07-27T01:43:15.033Z,18.52
2022-07-27T01:47:16.556Z,18.53
2022-07-27T01:51:17.967Z,18.56
2022-07-27T01:55:19.934Z,18.55
2022-07-27T01:59:21.413Z,18.55
2022-07-27T02:03:23.231Z,18.55
2022-07-27T02:07:24.763Z,18.52
2022-07-27T02:11:45.061Z,18.55
2022-07-27T02:15:48.295Z,18.54
2022-07-27T02:19:50.890Z,18.52
2022-07-27T02:23:52.419Z,18.49
2022-07-27T02:27:54.217Z,18.38
2022-07-27T02:31:55.694Z,18.28
2022-07-27T02:35:57.415Z,18.23
2022-07-27T02:39:59.186Z,18.21
2022-07-27T02:44:01.139Z,18.24
2022-07-27T02:48:03.029Z,18.31
2022-07-27T02:52:06.043Z,18.32
2022-07-27T02:56:07.642Z,18.30
2022-07-27T03:00:13.096Z,18.30
2022-07-27T03:04:15.735Z,18.21
2022-07-27T03:08:17.311Z,18.10
2022-07-27T03:12:18.967Z,18.03
2022-07-27T03:16:20.739Z,18.06
2022-07-27T03:20:22.842Z,18.11
2022-07-27T03:24:24.606Z,18.10
2022-07-27T03:28:26.338Z,18.07
2022-07-27T03:32:28.399Z,18.04
2022-07-27T03:36:30.671Z,18.01
2022-07-27T03:40:34.016Z,18.02
2022-07-27T03:44:35.548Z,18.05
2022-07-27T03:48:37.404Z,18.04
2022-07-27T03:52:38.911Z,18.03
2022-07-27T03:56:42.331Z,17.99
2022-07-27T04:00:45.299Z,17.95
2022-07-27T04:04:46.861Z,17.93
2022-07-27T04:08:48.344Z,17.93
2022-07-27T04:12:52.272Z,17.92
2022-07-27T04:16:54.587Z,17.91
2022-07-27T04:20:56.435Z,17.89
2022-07-27T04:24:58.142Z,17.85
2022-07-27T04:29:00.144Z,17.83
2022-07-27T04:33:02.217Z,17.81
2022-07-27T04:37:06.062Z,17.84
2022-07-27T04:41:07.726Z,17.88
2022-07-27T04:45:09.690Z,17.90
2022-07-27T04:49:12.733Z,17.93
2022-07-27T04:53:15.110Z,17.95
2022-07-27T04:57:16.661Z,17.99
2022-07-27T05:01:18.282Z,18.03
2022-07-27T05:05:19.960Z,18.08
2022-07-27T05:09:22.511Z,18.12
2022-07-27T05:13:24.478Z,18.08
2022-07-27T05:17:28.564Z,18.14
2022-07-27T05:21:31.127Z,18.15
2022-07-27T05:25:33.278Z,18.17
2022-07-27T05:29:35.760Z,18.20
2022-07-27T05:33:38.396Z,18.28
2022-07-27T05:37:40.268Z,18.35
2022-07-27T05:41:42.001Z,18.39
2022-07-27T05:45:43.545Z,18.45
2022-07-27T05:49:45.190Z,18.50
2022-07-27T05:53:49.242Z,18.52
2022-07-27T05:57:50.853Z,18.56
2022-07-27T06:01:52.403Z,18.60
2022-07-27T06:06:13.951Z,18.65
2022-07-27T06:10:15.582Z,18.71
2022-07-27T06:14:17.205Z,18.77
2022-07-27T06:18:18.754Z,18.77
2022-07-27T06:22:21.486Z,18.71
2022-07-27T06:26:24.694Z,18.71
2022-07-27T06:30:26.837Z,18.87
2022-07-27T06:34:28.351Z,18.94
2022-07-27T06:38:30.718Z,19.05
2022-07-27T06:42:32.401Z,19.16
2022-07-27T06:46:34.014Z,19.24
2022-07-27T06:50:35.544Z,19.33
2022-07-27T06:54:37.039Z,19.43
2022-07-27T06:58:38.613Z,19.68
2022-07-27T07:02:53.204Z,19.73
2022-07-27T07:07:05.281Z,19.79
2022-07-27T07:11:13.115Z,19.89
2022-07-27T07:15:32.516Z,20.05
2022-07-27T07:19:40.887Z,20.23
2022-07-27T07:23:52.422Z,20.34
2022-07-27T07:28:11.043Z,20.48
2022-07-27T07:32:34.495Z,20.83
2022-07-27T07:41:37.223Z,21.25
2022-07-27T07:55:33.393Z,22.52
2022-07-27T07:59:47.167Z,22.73
2022-07-27T08:04:01.347Z,23.09
2022-07-27T08:23:31.869Z,24.86
2022-07-27T08:27:40.711Z,25.07
2022-07-27T08:36:06.456Z,24.59
2022-07-27T08:44:31.926Z,24.70
2022-07-27T08:48:33.568Z,24.58
2022-07-27T08:52:36.579Z,24.44
2022-07-27T08:56:38.069Z,24.38
2022-07-27T09:00:46.141Z,24.30
2022-07-27T09:04:47.672Z,24.22
2022-07-27T09:08:59.391Z,23.99
2022-07-27T09:13:17.925Z,24.04
2022-07-27T09:17:47.941Z,24.34
2022-07-27T09:21:49.797Z,24.67
2022-07-27T09:26:21.689Z,24.90
2022-07-27T09:30:31.152Z,24.98
2022-07-27T09:34:34.349Z,24.55
2022-07-27T09:38:36.176Z,24.29
2022-07-27T09:43:08.973Z,23.91
2022-07-27T09:46:59.950Z,23.85
2022-07-27T09:51:24.224Z,23.96
2022-07-27T09:55:25.926Z,24.09
2022-07-27T09:59:28.368Z,24.38
2022-07-27T10:03:31.314Z,24.78
2022-07-27T10:07:33.306Z,24.53
2022-07-27T10:11:36.420Z,24.54
2022-07-27T10:15:41.610Z,24.33
2022-07-27T10:19:50.450Z,24.19
2022-07-27T10:24:00.267Z,24.27
2022-07-27T10:28:10.360Z,24.73
2022-07-27T10:32:11.826Z,25.32
2022-07-27T10:36:18.326Z,25.66
2022-07-27T10:40:34.878Z,25.96
2022-07-27T10:44:36.295Z,26.28
2022-07-27T10:48:44.319Z,26.69
2022-07-27T10:52:55.753Z,27.01
2022-07-27T10:56:58.902Z,27.17
2022-07-27T11:01:09.229Z,27.24
2022-07-27T11:05:53.717Z,27.18
2022-07-27T11:14:03.896Z,26.72
2022-07-27T11:18:05.558Z,26.35
2022-07-27T11:22:27.686Z,26.07
2022-07-27T11:26:31.579Z,25.90
2022-07-27T11:30:33.017Z,25.59
2022-07-27T11:34:36.086Z,25.57
2022-07-27T11:38:55.302Z,25.58
2022-07-27T11:42:56.826Z,25.77
2022-07-27T11:47:02.010Z,25.70
2022-07-27T11:51:03.991Z,25.64
2022-07-27T11:55:06.180Z,25.51
2022-07-27T11:59:10.823Z,25.55
2022-07-27T12:03:46.863Z,25.36
2022-07-27T12:07:48.940Z,25.19
2022-07-27T12:11:57.934Z,25.09
2022-07-27T12:15:59.693Z,25.11
2022-07-27T12:20:04.259Z,25.20
2022-07-27T12:24:06.149Z,25.38
2022-07-27T12:28:17.901Z,25.69
2022-07-27T12:32:19.460Z,26.15
2022-07-27T12:36:26.985Z,26.10
2022-07-27T12:40:29.993Z,26.43
2022-07-27T12:44:36.621Z,26.63
2022-07-27T12:48:41.228Z,26.60
2022-07-27T12:52:53.180Z,26.43
2022-07-27T12:56:54.599Z,26.22
2022-07-27T13:00:56.232Z,26.07
2022-07-27T13:04:57.703Z,25.96
2022-07-27T13:08:59.226Z,25.78
2022-07-27T13:13:00.855Z,25.60
2022-07-27T13:17:02.418Z,25.39
2022-07-27T13:21:03.915Z,25.21
2022-07-27T13:25:16.584Z,25.21
2022-07-27T13:29:18.650Z,25.22
2022-07-27T13:33:20.939Z,25.24
2022-07-27T13:37:22.776Z,25.21
2022-07-27T13:41:24.264Z,25.32
2022-07-27T13:45:25.781Z,25.82
2022-07-27T13:49:27.317Z,26.46
2022-07-27T13:53:28.990Z,26.83
2022-07-27T13:57:30.359Z,26.89
2022-07-27T14:01:33.295Z,27.00
2022-07-27T14:05:36.899Z,27.40
2022-07-27T14:09:59.591Z,27.66
2022-07-27T14:14:01.893Z,27.14
2022-07-27T14:18:03.559Z,26.74
2022-07-27T14:22:05.131Z,26.32
2022-07-27T14:26:07.819Z,25.94
2022-07-27T14:30:09.789Z,25.67
2022-07-27T14:34:11.301Z,25.39
2022-07-27T14:38:12.875Z,25.24
2022-07-27T14:42:14.336Z,25.20
2022-07-27T14:46:15.844Z,25.22
2022-07-27T14:50:17.294Z,25.45
2022-07-27T14:54:18.916Z,26.00
2022-07-27T14:58:20.306Z,26.68
2022-07-27T15:02:22.254Z,27.01
2022-07-27T15:06:24.045Z,26.80
2022-07-27T15:10:25.521Z,26.48
2022-07-27T15:14:27.618Z,26.22
2022-07-27T15:18:35.076Z,25.98
2022-07-27T15:22:39.753Z,25.77
2022-07-27T15:26:41.412Z,25.68
2022-07-27T15:30:42.761Z,25.55
2022-07-27T15:34:44.184Z,25.35
2022-07-27T15:38:45.661Z,25.23
2022-07-27T15:42:47.218Z,25.13
2022-07-27T15:46:48.938Z,25.10
2022-07-27T15:50:53.435Z,25.03
2022-07-27T15:54:55.270Z,24.96
2022-07-27T15:58:56.807Z,24.94
2022-07-27T16:02:58.230Z,24.94
2022-07-27T16:06:59.958Z,24.94
2022-07-27T16:11:01.516Z,24.94
2022-07-27T16:15:03.713Z,24.92
2022-07-27T16:19:12.803Z,24.91
2022-07-27T16:23:18.995Z,24.91
2022-07-27T16:27:23.345Z,24.95
2022-07-27T16:31:24.961Z,25.27
2022-07-27T16:35:27.824Z,25.50
2022-07-27T16:39:29.378Z,25.53
2022-07-27T16:43:37.995Z,25.51
2022-07-27T16:47:40.240Z,25.46
2022-07-27T16:51:41.827Z,25.40
2022-07-27T16:55:43.252Z,25.32
2022-07-27T16:59:44.704Z,25.27
2022-07-27T17:03:49.103Z,25.18
2022-07-27T17:07:52.270Z,25.06
2022-07-27T17:11:54.434Z,24.94
2022-07-27T17:15:56.182Z,24.78
2022-07-27T17:19:57.813Z,24.55
2022-07-27T17:23:59.462Z,24.34
2022-07-27T17:28:00.921Z,24.14
2022-07-27T17:32:02.401Z,23.96
2022-07-27T17:36:04.415Z,23.80
2022-07-27T17:40:06.584Z,23.67
2022-07-27T17:44:08.118Z,23.59
2022-07-27T17:48:09.534Z,23.48
2022-07-27T17:52:11.602Z,23.39
2022-07-27T17:56:13.321Z,23.33
2022-07-27T18:00:15.998Z,23.28
2022-07-27T18:04:17.579Z,23.26
2022-07-27T18:08:19.462Z,23.22
2022-07-27T18:12:22.011Z,23.15
2022-07-27T18:16:23.629Z,23.07
2022-07-27T18:20:25.189Z,22.99
2022-07-27T18:24:28.961Z,22.78
2022-07-27T18:28:35.830Z,22.54
2022-07-27T18:32:40.691Z,22.29
2022-07-27T18:36:42.480Z,22.14
2022-07-27T18:40:45.530Z,21.91
2022-07-27T18:44:47.154Z,21.73
2022-07-27T18:48:49.503Z,21.54
2022-07-27T18:52:50.915Z,21.39
2022-07-27T18:56:52.399Z,21.29
2022-07-27T19:00:54.964Z,21.21
2022-07-27T19:04:57.743Z,20.98
2022-07-27T19:08:59.442Z,20.82
2022-07-27T19:13:00.822Z,20.64
2022-07-27T19:17:02.474Z,20.44
2022-07-27T19:21:04.234Z,20.30
2022-07-27T19:25:07.854Z,20.27
2022-07-27T19:29:11.066Z,20.29
2022-07-27T19:33:13.259Z,20.33
2022-07-27T19:37:14.734Z,20.34
2022-07-27T19:41:16.237Z,20.36
2022-07-27T19:45:17.750Z,20.38
2022-07-27T19:49:19.472Z,20.41
2022-07-27T19:53:21.052Z,20.40
2022-07-27T19:57:22.694Z,20.37
2022-07-27T20:01:25.777Z,20.25
2022-07-27T20:05:27.278Z,20.11
2022-07-27T20:09:29.040Z,20.09
2022-07-27T20:13:30.829Z,20.02
2022-07-27T20:17:36.875Z,20.00
2022-07-27T20:21:40.274Z,19.97
2022-07-27T20:25:42.119Z,19.87
2022-07-27T20:29:43.586Z,19.80
2022-07-27T20:33:45.165Z,19.79
2022-07-27T20:37:47.630Z,19.79
2022-07-27T20:41:49.066Z,19.76
2022-07-27T20:45:50.630Z,19.75
2022-07-27T20:49:52.425Z,19.74
2022-07-27T20:53:53.883Z,19.68
2022-07-27T20:57:55.357Z,19.59
2022-07-27T21:01:56.815Z,19.51
2022-07-27T21:05:58.279Z,19.43
2022-07-27T21:09:59.906Z,19.40
2022-07-27T21:14:01.557Z,19.32
2022-07-27T21:18:03.216Z,19.25
2022-07-27T21:22:04.849Z,19.18
2022-07-27T21:26:06.619Z,19.17
2022-07-27T21:30:09.631Z,19.17
2022-07-27T21:34:11.131Z,19.13
2022-07-27T21:38:12.732Z,19.11
2022-07-27T21:42:14.189Z,19.08
2022-07-27T21:46:16.008Z,19.03
2022-07-27T21:50:18.055Z,18.99
2022-07-27T21:54:20.117Z,18.95
2022-07-27T21:58:21.637Z,18.90
2022-07-27T22:02:23.097Z,18.87
2022-07-27T22:06:29.776Z,18.84
2022-07-27T22:10:31.970Z,18.82
2022-07-27T22:14:33.618Z,18.76
2022-07-27T22:18:35.760Z,18.71
2022-07-27T22:22:37.183Z,18.64
2022-07-27T22:26:38.605Z,18.61
2022-07-27T22:30:43.623Z,18.54
2022-07-27T22:35:05.430Z,18.47
2022-07-27T22:39:07.280Z,18.42
2022-07-27T22:43:08.817Z,18.38
2022-07-27T22:47:10.321Z,18.35
2022-07-27T22:51:11.878Z,18.31
2022-07-27T22:55:13.262Z,18.25
2022-07-27T22:59:14.807Z,18.21
2022-07-27T23:03:16.461Z,18.12
2022-07-27T23:07:18.035Z,18.09
2022-07-27T23:11:19.486Z,18.04
2022-07-27T23:15:21.275Z,17.96
2022-07-27T23:19:22.716Z,17.89
2022-07-27T23:23:24.427Z,17.86
2022-07-27T23:27:29.154Z,17.80
2022-07-27T23:31:30.775Z,17.75
2022-07-27T23:35:32.480Z,17.72
2022-07-27T23:39:34.760Z,17.68
2022-07-27T23:43:36.382Z,17.66
2022-07-27T23:47:39.045Z,17.60
2022-07-27T23:51:40.418Z,17.58
2022-07-27T23:55:42.386Z,17.53
2022-07-27T23:59:43.816Z,17.51
